Time;durP1;ratioP1;P1;durP2;ratioP2;P2;SDS_P1;SDS_P2;PMS_P1;PMS_P2;Temp;Humidity;BMP_temperature;BMP_pressure;BME280_temperature;BME280_humidity;BME280_pressure;Samples;Min_cycle;Max_cycle;Signal;HPM_P1;HPM_P2
2024/04/03 00:00:51;;;;;;;17.08;1.20;;;10.10;99.90;;;;;;4990031;28;20131;-73
2024/04/03 00:03:17;;;;;;;3.17;0.93;;;10.10;99.90;;;;;;4989589;28;20113;-73
2024/04/03 00:05:43;;;;;;;2.08;0.82;;;10.00;99.90;;;;;;5004274;28;20041;-73
2024/04/03 00:08:09;;;;;;;0.75;0.50;;;10.00;99.90;;;;;;5000761;28;20033;-73
2024/04/03 00:10:35;;;;;;;4.43;0.75;;;10.00;99.90;;;;;;4991397;28;20030;-73
2024/04/03 00:13:01;;;;;;;2.97;1.48;;;10.00;99.90;;;;;;5008189;28;20034;-73
2024/04/03 00:15:26;;;;;;;2.58;0.95;;;10.00;99.90;;;;;;5009962;28;20540;-72
2024/04/03 00:17:54;;;;;;;4.28;0.90;;;10.00;99.90;;;;;;5003577;28;20440;-73
2024/04/03 00:20:22;;;;;;;6.50;1.23;;;10.00;99.90;;;;;;4983818;28;20029;-73
2024/04/03 00:22:47;;;;;;;2.72;0.70;;;10.10;99.90;;;;;;5006835;28;20648;-73
2024/04/03 00:25:13;;;;;;;2.72;1.23;;;10.00;99.90;;;;;;4996873;28;20056;-73
2024/04/03 00:27:39;;;;;;;2.78;0.68;;;10.10;99.90;;;;;;5005083;28;20029;-73
2024/04/03 00:30:05;;;;;;;0.63;0.63;;;10.10;99.90;;;;;;4994579;28;20060;-73
2024/04/03 00:32:31;;;;;;;1.27;0.40;;;10.10;99.90;;;;;;4996640;28;20476;-73
2024/04/03 00:34:57;;;;;;;7.15;1.00;;;10.10;99.90;;;;;;4993270;28;20676;-73
2024/04/03 00:37:22;;;;;;;1.92;0.55;;;10.00;99.90;;;;;;4992964;28;20108;-73
2024/04/03 00:39:55;;;;;;;3.00;1.02;;;10.00;99.90;;;;;;4986464;28;20034;-73
2024/04/03 00:42:21;;;;;;;5.35;1.25;;;10.00;99.90;;;;;;4999915;28;20083;-73
2024/04/03 00:44:49;;;;;;;1.77;0.88;;;10.00;99.90;;;;;;5003317;28;20030;-73
2024/04/03 00:47:16;;;;;;;2.10;0.55;;;10.00;99.90;;;;;;4999133;28;20110;-73
2024/04/03 00:49:44;;;;;;;5.95;0.80;;;10.00;99.90;;;;;;4994985;28;20030;-73
2024/04/03 00:52:16;;;;;;;1.50;0.80;;;10.00;99.90;;;;;;5000587;28;20459;-73
2024/04/03 00:54:42;;;;;;;;;;;10.00;99.90;;;;;;5008668;28;20145;-73
2024/04/03 00:57:09;;;;;;;1.73;0.80;;;10.00;99.90;;;;;;4997057;28;20043;-73
2024/04/03 00:59:35;;;;;;;9.15;1.60;;;10.00;99.90;;;;;;4996605;28;20042;-73
2024/04/03 01:02:01;;;;;;;5.53;1.60;;;10.00;99.90;;;;;;4994329;28;20040;-73
2024/04/03 01:04:27;;;;;;;9.57;1.38;;;10.00;99.90;;;;;;4999598;28;20045;-73
2024/04/03 01:06:53;;;;;;;1.58;0.80;;;10.00;99.90;;;;;;5008405;28;20058;-74
2024/04/03 01:09:19;;;;;;;3.20;0.73;;;10.00;99.90;;;;;;4991698;28;20149;-73
2024/04/03 01:11:46;;;;;;;6.18;1.00;;;10.00;99.90;;;;;;4995551;28;20113;-73
2024/04/03 01:14:13;;;;;;;3.42;1.05;;;10.10;99.90;;;;;;5000236;28;20040;-73
2024/04/03 01:16:43;;;;;;;4.72;1.33;;;10.10;99.90;;;;;;5008012;28;20034;-73
2024/04/03 01:19:09;;;;;;;2.58;1.10;;;10.10;99.90;;;;;;5011808;28;20400;-73
2024/04/03 01:21:36;;;;;;;0.65;0.32;;;10.10;99.90;;;;;;5012332;28;20467;-73
2024/04/03 01:24:02;;;;;;;3.35;0.50;;;10.20;99.90;;;;;;5004848;28;20076;-73
2024/04/03 01:26:30;;;;;;;7.88;1.02;;;10.20;99.90;;;;;;5007705;28;20026;-73
2024/04/03 01:28:56;;;;;;;2.08;0.90;;;10.20;99.90;;;;;;5016807;28;20033;-73
2024/04/03 01:31:22;;;;;;;4.38;0.80;;;10.30;99.90;;;;;;5025391;28;20025;-73
2024/04/03 01:33:48;;;;;;;2.45;0.80;;;10.30;99.90;;;;;;5015552;28;20149;-73
2024/04/03 01:36:14;;;;;;;1.63;0.73;;;10.30;99.90;;;;;;5024134;28;20093;-73
2024/04/03 01:38:39;;;;;;;5.35;0.98;;;10.30;99.90;;;;;;5040665;28;20063;-73
2024/04/03 01:41:05;;;;;;;2.25;0.90;;;10.30;99.90;;;;;;5033257;28;20036;-73
2024/04/03 01:43:31;;;;;;;1.33;0.57;;;10.40;99.90;;;;;;5026430;28;20018;-73
2024/04/03 01:45:58;;;;;;;2.67;0.68;;;10.40;99.90;;;;;;5026430;28;20034;-73
2024/04/03 01:48:24;;;;;;;4.68;0.90;;;10.40;99.90;;;;;;5011173;28;20121;-73
2024/04/03 01:50:49;;;;;;;5.53;0.70;;;10.40;99.90;;;;;;4992074;28;20191;-73
2024/04/03 01:53:18;;;;;;;3.47;0.70;;;10.50;99.90;;;;;;5002623;28;20430;-73
2024/04/03 01:55:58;;;;;;;4.68;0.75;;;10.50;99.90;;;;;;5019154;28;20483;-73
2024/04/03 01:58:25;;;;;;;3.22;0.68;;;10.50;99.90;;;;;;5007463;28;20064;-73
2024/04/03 02:00:52;;;;;;;2.97;0.70;;;10.50;99.90;;;;;;5008774;28;20106;-73
2024/04/03 02:03:20;;;;;;;1.73;0.60;;;10.50;99.90;;;;;;5007013;28;20498;-74
2024/04/03 02:05:47;;;;;;;1.05;0.55;;;10.50;99.90;;;;;;5006716;28;20026;-74
2024/04/03 02:08:14;;;;;;;4.05;0.65;;;10.50;99.90;;;;;;5006757;28;20080;-73
2024/04/03 02:10:40;;;;;;;2.22;0.40;;;10.50;99.90;;;;;;5017646;28;20022;-73
2024/04/03 02:13:06;;;;;;;1.35;0.80;;;10.50;99.90;;;;;;5013510;28;20060;-74
2024/04/03 02:15:32;;;;;;;3.88;0.85;;;10.50;99.90;;;;;;5017844;28;20653;-74
2024/04/03 02:17:58;;;;;;;1.85;0.45;;;10.50;99.90;;;;;;5013604;28;20038;-74
2024/04/03 02:20:24;;;;;;;3.53;0.63;;;10.50;99.90;;;;;;5015685;28;20043;-74
2024/04/03 02:22:51;;;;;;;0.82;0.40;;;10.50;99.90;;;;;;5010273;28;20030;-73
2024/04/03 02:25:17;;;;;;;1.13;0.47;;;10.50;99.90;;;;;;5023575;28;20052;-73
2024/04/03 02:27:44;;;;;;;1.02;0.47;;;10.50;99.90;;;;;;5010860;28;20073;-74
2024/04/03 02:30:10;;;;;;;1.42;0.38;;;10.50;99.90;;;;;;5019499;28;20540;-73
2024/04/03 02:32:36;;;;;;;2.13;1.13;;;10.50;99.90;;;;;;5009193;28;20064;-73
2024/04/03 02:35:01;;;;;;;3.13;0.43;;;10.50;99.90;;;;;;5026562;28;20593;-72
2024/04/03 02:37:27;;;;;;;2.10;0.47;;;10.50;99.90;;;;;;4990586;28;20498;-72
2024/04/03 02:39:53;;;;;;;2.70;0.40;;;10.50;99.90;;;;;;5008826;28;20042;-73
2024/04/03 02:42:19;;;;;;;1.92;0.35;;;10.50;99.90;;;;;;5012999;28;20514;-72
2024/04/03 02:44:44;;;;;;;4.15;0.63;;;10.50;99.90;;;;;;5014603;28;20045;-73
2024/04/03 02:47:10;;;;;;;1.38;0.73;;;10.50;99.90;;;;;;5012833;28;20026;-72
2024/04/03 02:49:36;;;;;;;1.00;0.40;;;10.50;99.90;;;;;;5006686;28;20026;-72
2024/04/03 02:52:03;;;;;;;1.55;0.73;;;10.50;99.90;;;;;;5018578;28;20022;-72
2024/04/03 02:54:31;;;;;;;3.80;0.60;;;10.50;99.90;;;;;;5006519;28;20033;-72
2024/04/03 02:56:57;;;;;;;1.33;0.65;;;10.50;99.90;;;;;;5021398;28;20033;-72
2024/04/03 02:59:22;;;;;;;1.33;0.73;;;10.50;99.90;;;;;;5020910;28;20042;-72
2024/04/03 03:01:49;;;;;;;2.58;0.90;;;10.50;99.90;;;;;;5019834;28;20079;-72
2024/04/03 03:04:15;;;;;;;1.85;0.68;;;10.50;99.90;;;;;;5010100;28;20033;-72
2024/04/03 03:06:41;;;;;;;2.33;0.50;;;10.50;99.90;;;;;;5011605;28;20042;-72
2024/04/03 03:09:06;;;;;;;1.45;0.35;;;10.50;99.90;;;;;;5008770;28;20046;-72
2024/04/03 03:11:32;;;;;;;3.92;0.70;;;10.60;99.90;;;;;;5011934;28;20093;-72
2024/04/03 03:13:58;;;;;;;0.90;0.40;;;10.60;99.90;;;;;;5005415;28;20541;-73
2024/04/03 03:16:24;;;;;;;4.20;0.70;;;10.60;99.90;;;;;;5010843;28;20072;-72
2024/04/03 03:18:49;;;;;;;0.52;0.52;;;10.60;99.90;;;;;;5017674;28;20048;-73
2024/04/03 03:21:15;;;;;;;0.98;0.25;;;10.60;99.90;;;;;;4993854;28;20029;-72
2024/04/03 03:23:41;;;;;;;5.00;1.25;;;10.60;99.90;;;;;;5008673;28;20380;-72
2024/04/03 03:26:07;;;;;;;1.30;0.60;;;10.60;99.90;;;;;;5010279;28;20033;-72
2024/04/03 03:28:33;;;;;;;4.38;0.75;;;10.60;99.90;;;;;;5011748;28;20026;-72
2024/04/03 03:30:59;;;;;;;0.20;0.20;;;10.60;99.90;;;;;;4989068;28;20034;-72
2024/04/03 03:33:25;;;;;;;3.22;0.45;;;10.60;99.90;;;;;;5009300;28;20037;-72
2024/04/03 03:35:58;;;;;;;0.30;0.30;;;10.60;99.90;;;;;;5011212;28;20045;-72
2024/04/03 03:38:26;;;;;;;2.13;1.13;;;10.50;99.90;;;;;;5000164;28;20034;-72
2024/04/03 03:40:52;;;;;;;4.35;0.90;;;10.50;99.90;;;;;;5012469;28;20537;-72
2024/04/03 03:43:18;;;;;;;0.95;0.35;;;10.60;99.90;;;;;;5007012;28;20069;-72
2024/04/03 03:45:51;;;;;;;1.30;0.60;;;10.60;99.90;;;;;;5007612;28;20030;-73
2024/04/03 03:48:21;;;;;;;0.20;0.20;;;10.60;99.90;;;;;;5006255;28;20121;-72
2024/04/03 03:53:32;;;;;;;2.38;1.08;;;10.70;99.90;;;;;;5006270;28;20026;-72
2024/04/03 03:56:08;;;;;;;1.65;0.63;;;10.70;99.90;;;;;;5009350;28;20030;-73
2024/04/03 03:58:34;;;;;;;0.75;0.40;;;10.70;99.90;;;;;;5007701;28;20030;-73
2024/04/03 04:01:04;;;;;;;3.63;0.50;;;10.70;99.90;;;;;;5013548;28;20037;-72
2024/04/03 04:03:30;;;;;;;1.77;0.68;;;10.60;99.90;;;;;;5029886;28;20034;-72
2024/04/03 04:06:00;;;;;;;1.27;0.40;;;10.60;99.90;;;;;;5012066;28;20084;-72
2024/04/03 04:08:25;;;;;;;0.63;0.30;;;10.60;99.90;;;;;;5016837;28;20034;-72
2024/04/03 04:10:55;;;;;;;1.30;0.63;;;10.60;99.90;;;;;;5010259;28;20025;-73
2024/04/03 04:13:21;;;;;;;1.10;0.40;;;10.60;99.90;;;;;;5017942;28;20037;-74
2024/04/03 04:15:47;;;;;;;3.60;1.00;;;10.70;99.90;;;;;;4999390;28;20034;-73
2024/04/03 04:18:14;;;;;;;2.13;0.22;;;10.60;99.90;;;;;;5015566;28;20040;-73
2024/04/03 04:20:41;;;;;;;0.95;0.55;;;10.60;99.90;;;;;;5009656;28;20049;-74
2024/04/03 04:23:07;;;;;;;0.65;0.60;;;10.60;99.90;;;;;;5011638;28;20041;-74
2024/04/03 04:25:33;;;;;;;1.02;0.57;;;10.60;99.90;;;;;;5019264;28;20022;-72
2024/04/03 04:27:59;;;;;;;1.75;0.70;;;10.60;99.90;;;;;;5018897;28;20046;-73
2024/04/03 04:30:24;;;;;;;5.47;0.63;;;10.60;99.90;;;;;;4994744;28;20038;-72
2024/04/03 04:32:50;;;;;;;3.97;0.60;;;10.50;99.90;;;;;;4994431;28;20034;-72
2024/04/03 04:35:16;;;;;;;4.28;1.02;;;10.50;99.90;;;;;;5021239;28;20103;-72
2024/04/03 04:37:43;;;;;;;0.60;0.50;;;10.50;99.90;;;;;;5020682;28;20037;-72
2024/04/03 04:40:10;;;;;;;1.65;0.52;;;10.40;99.90;;;;;;5011116;28;20125;-72
2024/04/03 04:42:36;;;;;;;6.55;0.90;;;10.40;99.90;;;;;;5028825;28;20029;-72
2024/04/03 04:45:03;;;;;;;1.67;0.45;;;10.40;99.90;;;;;;5019855;28;20036;-72
2024/04/03 04:47:28;;;;;;;0.68;0.30;;;10.40;99.90;;;;;;5007609;28;20053;-72
2024/04/03 04:49:54;;;;;;;0.68;0.22;;;10.40;99.90;;;;;;5019179;28;20107;-72
2024/04/03 04:52:20;;;;;;;1.40;0.70;;;10.40;99.90;;;;;;5021973;28;20467;-72
2024/04/03 04:54:45;;;;;;;4.28;0.68;;;10.40;99.90;;;;;;5018618;28;20033;-73
2024/04/03 04:57:15;;;;;;;7.68;0.77;;;10.40;99.90;;;;;;5025543;28;20494;-74
2024/04/03 04:59:41;;;;;;;1.48;0.45;;;10.40;99.90;;;;;;5019851;28;20025;-74
2024/04/03 05:02:06;;;;;;;1.20;0.65;;;10.40;99.90;;;;;;5026092;28;20035;-77
2024/04/03 05:04:32;;;;;;;2.47;0.57;;;10.30;99.90;;;;;;5025325;28;20056;-77
2024/04/03 05:07:00;;;;;;;3.92;0.65;;;10.30;99.90;;;;;;5023785;28;20039;-76
2024/04/03 05:09:28;;;;;;;1.65;0.40;;;10.20;99.90;;;;;;4984750;28;20080;-76
2024/04/03 05:11:54;;;;;;;1.20;0.80;;;10.30;99.90;;;;;;5018413;28;20029;-76
2024/04/03 05:14:20;;;;;;;2.20;0.75;;;10.30;99.90;;;;;;5022907;28;20048;-79
2024/04/03 05:16:45;;;;;;;2.30;0.45;;;10.30;99.90;;;;;;5027474;28;20036;-77
2024/04/03 05:19:11;;;;;;;1.90;0.63;;;10.20;99.90;;;;;;5005755;28;20040;-78
2024/04/03 05:21:37;;;;;;;0.65;0.45;;;10.30;99.90;;;;;;4994494;28;20033;-78
2024/04/03 05:24:03;;;;;;;1.17;0.63;;;10.30;99.90;;;;;;5026721;28;20044;-78
2024/04/03 05:26:28;;;;;;;3.53;0.30;;;10.30;99.90;;;;;;5020486;28;20039;-78
2024/04/03 05:28:54;;;;;;;0.55;0.40;;;10.30;99.90;;;;;;5020778;28;20030;-75
2024/04/03 05:31:22;;;;;;;0.68;0.40;;;10.30;99.90;;;;;;5023665;28;20025;-75
2024/04/03 05:33:49;;;;;;;1.08;0.43;;;10.30;99.90;;;;;;5020214;28;20447;-76
2024/04/03 05:36:15;;;;;;;2.72;0.85;;;10.30;99.90;;;;;;5023489;28;20072;-76
2024/04/03 05:38:41;;;;;;;4.13;0.50;;;10.30;99.90;;;;;;5021165;28;20489;-76
2024/04/03 05:41:08;;;;;;;1.65;0.47;;;10.30;99.90;;;;;;5022230;28;20124;-77
2024/04/03 05:43:35;;;;;;;0.63;0.40;;;10.30;99.90;;;;;;5017307;28;20030;-77
2024/04/03 05:46:00;;;;;;;3.17;0.50;;;10.40;99.90;;;;;;5012762;28;20030;-77
2024/04/03 05:48:27;;;;;;;2.00;0.43;;;10.40;99.90;;;;;;5016539;28;20022;-77
2024/04/03 05:51:05;;;;;;;2.33;0.50;;;10.40;99.90;;;;;;5032516;28;20045;-77
2024/04/03 05:53:33;;;;;;;1.38;0.70;;;10.30;99.90;;;;;;5024542;28;20432;-77
2024/04/03 05:56:01;;;;;;;0.82;0.43;;;10.30;99.90;;;;;;5021529;28;20061;-77
2024/04/03 05:58:28;;;;;;;1.25;0.43;;;10.30;99.90;;;;;;5020522;28;20029;-76
2024/04/03 06:00:56;;;;;;;3.45;0.43;;;10.30;99.90;;;;;;5027102;28;20105;-77
2024/04/03 06:03:22;;;;;;;1.65;0.40;;;10.30;99.90;;;;;;5018324;28;20067;-77
2024/04/03 06:05:53;;;;;;;4.75;0.80;;;10.30;99.90;;;;;;5021753;28;20026;-78
2024/04/03 06:08:20;;;;;;;2.20;0.73;;;10.30;99.90;;;;;;5024413;28;20445;-78
2024/04/03 06:10:46;;;;;;;3.70;1.02;;;10.30;99.90;;;;;;5017329;28;20022;-80
2024/04/03 06:13:12;;;;;;;3.03;0.52;;;10.30;99.90;;;;;;5016756;28;20045;-79
2024/04/03 06:15:38;;;;;;;1.33;0.85;;;10.30;99.90;;;;;;5021668;28;20474;-80
2024/04/03 06:18:04;;;;;;;4.10;0.70;;;10.30;99.90;;;;;;5026889;28;20062;-79
2024/04/03 06:20:30;;;;;;;1.95;0.68;;;10.30;99.90;;;;;;5012039;28;20040;-80
2024/04/03 06:22:56;;;;;;;1.33;0.75;;;10.20;99.90;;;;;;5024971;28;20049;-79
2024/04/03 06:25:22;;;;;;;1.85;0.88;;;10.20;99.90;;;;;;5042211;28;20021;-80
2024/04/03 06:27:48;;;;;;;2.13;0.85;;;10.20;99.90;;;;;;5026778;28;20045;-79
2024/04/03 06:30:15;;;;;;;0.52;0.50;;;10.10;99.90;;;;;;5018525;28;20068;-80
2024/04/03 06:32:42;;;;;;;7.30;0.82;;;10.10;99.90;;;;;;5017530;28;20022;-81
2024/04/03 06:35:10;;;;;;;4.18;0.40;;;10.00;99.90;;;;;;5020131;28;20065;-79
2024/04/03 06:37:36;;;;;;;4.80;0.90;;;10.00;99.90;;;;;;5024406;28;20029;-77
2024/04/03 06:40:02;;;;;;;3.25;0.57;;;10.00;99.90;;;;;;5023053;28;20033;-78
2024/04/03 06:42:28;;;;;;;0.90;0.70;;;9.90;99.90;;;;;;5023958;28;20025;-77
2024/04/03 06:44:54;;;;;;;2.05;0.90;;;10.00;99.90;;;;;;5016412;28;20041;-78
2024/04/03 06:47:20;;;;;;;2.30;1.00;;;10.00;99.90;;;;;;5025660;28;20161;-78
2024/04/03 06:49:46;;;;;;;3.42;1.00;;;9.90;99.90;;;;;;5015419;28;20443;-77
2024/04/03 06:52:11;;;;;;;0.28;0.28;;;9.90;99.90;;;;;;5014415;28;20434;-78
2024/04/03 06:54:37;;;;;;;1.77;0.60;;;9.90;99.90;;;;;;5012056;28;20034;-77
2024/04/03 06:57:04;;;;;;;1.10;0.60;;;9.90;99.90;;;;;;5013213;28;20490;-77
2024/04/03 06:59:31;;;;;;;0.47;0.43;;;9.90;99.90;;;;;;5018130;28;20021;-77
2024/04/03 07:01:57;;;;;;;2.60;1.27;;;9.90;99.90;;;;;;5009650;28;20540;-77
2024/04/03 07:04:23;;;;;;;0.80;0.75;;;9.90;99.90;;;;;;5005147;28;20061;-77
2024/04/03 07:06:49;;;;;;;5.28;0.98;;;9.80;99.90;;;;;;5008509;28;20479;-77
2024/04/03 07:09:15;;;;;;;3.03;0.98;;;9.80;99.90;;;;;;5009866;28;20029;-77
2024/04/03 07:11:41;;;;;;;0.63;0.50;;;9.80;99.90;;;;;;5008253;28;20034;-77
2024/04/03 07:14:07;;;;;;;2.17;0.65;;;9.80;99.90;;;;;;5003206;28;20038;-78
2024/04/03 07:16:32;;;;;;;2.95;0.70;;;9.80;99.90;;;;;;5019822;28;20033;-77
2024/04/03 07:18:59;;;;;;;5.43;0.75;;;9.80;99.90;;;;;;5013843;28;20084;-77
2024/04/03 07:21:24;;;;;;;2.22;0.65;;;9.80;99.90;;;;;;5011426;28;20025;-77
2024/04/03 07:23:50;;;;;;;0.65;0.50;;;9.80;99.90;;;;;;5009743;28;20034;-76
2024/04/03 07:26:19;;;;;;;1.65;0.70;;;9.90;99.90;;;;;;5011269;28;20036;-74
2024/04/03 07:28:46;;;;;;;6.35;1.00;;;9.90;99.90;;;;;;5006775;28;20033;-74
2024/04/03 07:31:12;;;;;;;2.20;0.95;;;9.90;99.90;;;;;;5001687;28;20053;-74
2024/04/03 07:33:37;;;;;;;2.88;0.68;;;10.00;99.90;;;;;;5004716;28;20495;-73
2024/04/03 07:36:04;;;;;;;4.97;0.57;;;10.10;99.90;;;;;;5008915;28;20081;-73
2024/04/03 07:38:30;;;;;;;4.32;0.80;;;10.10;99.90;;;;;;5021597;28;20025;-73
2024/04/03 07:40:57;;;;;;;6.95;1.38;;;10.10;99.90;;;;;;5030665;28;20108;-72
2024/04/03 07:43:23;;;;;;;4.70;1.30;;;10.10;99.90;;;;;;5004765;28;20030;-73
2024/04/03 07:45:56;;;;;;;1.60;1.05;;;10.20;99.90;;;;;;5035072;28;20059;-73
2024/04/03 07:48:21;;;;;;;1.25;0.60;;;10.20;99.90;;;;;;5014444;28;20076;-73
2024/04/03 07:50:47;;;;;;;1.23;0.50;;;10.20;99.90;;;;;;5006253;28;20430;-73
2024/04/03 07:53:13;;;;;;;2.63;0.77;;;10.10;99.90;;;;;;5025545;28;20652;-73
2024/04/03 07:55:39;;;;;;;1.65;0.70;;;10.20;99.90;;;;;;5007656;28;20061;-74
2024/04/03 07:58:05;;;;;;;0.95;0.60;;;10.20;99.90;;;;;;5001253;28;20089;-74
2024/04/03 08:00:31;;;;;;;0.90;0.50;;;10.20;99.90;;;;;;5003654;28;20382;-73
2024/04/03 08:02:57;;;;;;;3.92;0.70;;;10.20;99.90;;;;;;5006324;28;20030;-73
2024/04/03 08:05:23;;;;;;;3.78;0.57;;;10.30;99.90;;;;;;5007766;28;20667;-73
2024/04/03 08:07:49;;;;;;;4.68;0.80;;;10.40;99.90;;;;;;5014965;28;20029;-73
2024/04/03 08:10:15;;;;;;;3.83;1.20;;;10.50;99.90;;;;;;5009942;28;20081;-74
2024/04/03 08:12:41;;;;;;;5.78;1.17;;;10.70;99.90;;;;;;5009923;28;20348;-73
2024/04/03 08:15:11;;;;;;;0.68;0.57;;;10.70;99.90;;;;;;5008296;28;20044;-74
2024/04/03 08:17:38;;;;;;;1.60;0.65;;;10.80;99.90;;;;;;5010372;28;20117;-73
2024/04/03 08:20:05;;;;;;;2.00;0.90;;;10.90;99.90;;;;;;5008346;28;20410;-73
2024/04/03 08:22:31;;;;;;;2.17;0.75;;;10.90;99.90;;;;;;4990094;28;20573;-73
2024/04/03 08:24:57;;;;;;;5.43;0.95;;;10.90;99.90;;;;;;5000042;28;20513;-73
2024/04/03 08:27:22;;;;;;;5.60;1.25;;;11.00;99.90;;;;;;5013874;28;20018;-73
2024/04/03 08:29:49;;;;;;;1.63;0.90;;;11.10;99.90;;;;;;5013460;28;20049;-73
2024/04/03 08:32:16;;;;;;;1.92;0.90;;;11.20;99.90;;;;;;5010387;28;20026;-73
2024/04/03 08:34:42;;;;;;;1.10;0.55;;;11.20;99.90;;;;;;5005087;28;20034;-73
2024/04/03 08:37:10;;;;;;;1.83;0.85;;;11.20;99.90;;;;;;5008922;28;20509;-73
2024/04/03 08:39:36;;;;;;;4.82;0.95;;;11.20;99.90;;;;;;5009124;28;20033;-73
2024/04/03 08:42:02;;;;;;;1.10;0.60;;;11.10;99.90;;;;;;5010921;28;20033;-73
2024/04/03 08:44:33;;;;;;;1.92;1.38;;;11.20;99.90;;;;;;5014142;28;20038;-73
2024/04/03 08:47:00;;;;;;;2.92;0.85;;;11.30;99.90;;;;;;5027236;28;20036;-73
2024/04/03 08:49:32;;;;;;;1.23;0.70;;;11.50;99.90;;;;;;5009350;28;20471;-73
2024/04/03 08:52:04;;;;;;;1.75;1.08;;;11.50;99.90;;;;;;5026438;28;20168;-73
2024/04/03 08:54:31;;;;;;;2.25;0.75;;;11.70;99.90;;;;;;5011573;28;20109;-73
2024/04/03 08:57:03;;;;;;;3.63;0.90;;;11.60;99.90;;;;;;5012574;28;20173;-73
2024/04/03 08:59:36;;;;;;;1.77;0.88;;;11.70;99.90;;;;;;5024413;28;20045;-73
2024/04/03 09:02:02;;;;;;;3.47;1.20;;;11.80;99.90;;;;;;5011142;28;20112;-73
2024/04/03 09:04:29;;;;;;;1.73;0.80;;;11.90;99.90;;;;;;5015974;28;20606;-73
2024/04/03 09:06:55;;;;;;;1.77;0.88;;;11.90;99.90;;;;;;5008998;28;20124;-73
2024/04/03 09:09:31;;;;;;;4.05;1.38;;;12.00;99.90;;;;;;5012027;28;20026;-73
2024/04/03 09:12:03;;;;;;;3.42;0.75;;;12.20;99.90;;;;;;5017548;28;20429;-74
2024/04/03 09:14:29;;;;;;;1.15;0.98;;;12.50;99.90;;;;;;5004560;28;20135;-73
2024/04/03 09:17:03;;;;;;;2.58;0.70;;;12.60;99.90;;;;;;5016617;28;20030;-73
2024/04/03 09:19:30;;;;;;;0.65;0.40;;;12.60;99.90;;;;;;5014830;28;20026;-73
2024/04/03 09:21:59;;;;;;;1.45;0.65;;;13.00;99.90;;;;;;5005008;28;20132;-73
2024/04/03 09:24:25;;;;;;;4.50;0.70;;;13.00;99.90;;;;;;5016301;28;20030;-74
2024/04/03 09:26:56;;;;;;;4.70;0.68;;;13.30;99.90;;;;;;5007680;28;20037;-75
2024/04/03 09:29:23;;;;;;;0.32;0.30;;;13.40;99.90;;;;;;5013491;28;20018;-74
2024/04/03 09:31:50;;;;;;;0.80;0.40;;;13.40;99.90;;;;;;5004902;28;20390;-75
2024/04/03 09:34:18;;;;;;;0.40;0.38;;;13.40;99.90;;;;;;4995024;28;20029;-74
2024/04/03 09:36:44;;;;;;;2.17;0.57;;;13.10;99.90;;;;;;5010997;28;20041;-74
2024/04/03 09:39:10;;;;;;;2.67;0.65;;;13.40;99.90;;;;;;5009633;28;20034;-74
2024/04/03 09:41:38;;;;;;;1.88;0.60;;;13.40;99.90;;;;;;5016481;28;20033;-74
2024/04/03 09:44:08;;;;;;;20.67;2.72;;;13.60;99.90;;;;;;5016301;28;20037;-74
2024/04/03 09:46:59;;;;;;;2.35;0.57;;;13.60;99.90;;;;;;5011122;28;20034;-74
2024/04/03 09:49:33;;;;;;;1.92;0.20;;;13.50;99.90;;;;;;5013012;28;20033;-75
2024/04/03 09:51:59;;;;;;;2.17;0.73;;;13.50;99.90;;;;;;4995622;28;20030;-74
2024/04/03 09:54:26;;;;;;;18.77;2.15;;;13.40;99.90;;;;;;5008388;28;20026;-74
2024/04/03 09:56:53;;;;;;;1.70;0.55;;;13.30;99.90;;;;;;5014385;28;20042;-74
2024/04/03 09:59:21;;;;;;;1.30;0.40;;;13.30;99.90;;;;;;5015592;28;20498;-74
2024/04/03 10:01:47;;;;;;;1.30;0.30;;;13.30;99.90;;;;;;5007883;28;20173;-74
2024/04/03 10:04:16;;;;;;;0.20;0.20;;;13.40;99.90;;;;;;5010177;28;20656;-74
2024/04/03 10:06:42;;;;;;;1.73;0.73;;;13.40;99.90;;;;;;5025413;28;20034;-74
2024/04/03 10:09:15;;;;;;;0.60;0.30;;;13.50;99.90;;;;;;5012390;28;20042;-74
2024/04/03 10:12:07;;;;;;;8.48;2.08;;;13.60;99.90;;;;;;5018087;28;20025;-74
2024/04/03 10:14:35;;;;;;;1.35;0.43;;;13.70;99.90;;;;;;5009814;28;20034;-74
2024/04/03 10:17:12;;;;;;;1.80;0.63;;;13.70;99.90;;;;;;5013874;28;20030;-74
2024/04/03 10:19:42;;;;;;;2.95;0.60;;;13.70;99.90;;;;;;5010889;28;20051;-74
2024/04/03 10:22:14;;;;;;;3.78;0.60;;;13.70;99.90;;;;;;5012774;28;20585;-74
2024/04/03 10:24:48;;;;;;;2.67;0.50;;;13.60;99.90;;;;;;5014650;28;20026;-74
2024/04/03 10:27:14;;;;;;;0.98;0.60;;;13.40;99.90;;;;;;5009652;28;20026;-74
2024/04/03 10:29:40;;;;;;;1.85;0.45;;;13.30;99.90;;;;;;5007394;28;20034;-73
2024/04/03 10:32:06;;;;;;;4.32;1.10;;;13.20;99.90;;;;;;5008783;28;20026;-73
2024/04/03 10:34:35;;;;;;;1.10;0.45;;;13.20;99.90;;;;;;5010236;28;20060;-73
2024/04/03 10:37:03;;;;;;;1.10;0.30;;;13.30;99.90;;;;;;5018513;28;20037;-73
2024/04/03 10:39:29;;;;;;;2.92;0.85;;;13.40;99.90;;;;;;5014740;28;20041;-73
2024/04/03 10:41:58;;;;;;;4.20;0.50;;;13.30;99.90;;;;;;5022741;28;20033;-73
2024/04/03 10:44:24;;;;;;;2.42;0.45;;;13.30;99.90;;;;;;5011193;28;20163;-73
2024/04/03 10:46:50;;;;;;;0.55;0.40;;;13.40;99.90;;;;;;4991079;28;20713;-73
2024/04/03 10:49:16;;;;;;;0.80;0.43;;;13.20;99.90;;;;;;5008399;28;20045;-73
2024/04/03 10:51:42;;;;;;;0.43;0.20;;;13.40;99.90;;;;;;5006564;28;20027;-73
2024/04/03 10:54:09;;;;;;;0.35;0.28;;;13.10;99.90;;;;;;4998975;28;20073;-73
2024/04/03 10:56:35;;;;;;;3.05;0.50;;;13.20;99.90;;;;;;4989339;28;20041;-74
2024/04/03 10:59:01;;;;;;;1.17;0.50;;;13.10;99.90;;;;;;5034325;28;20037;-73
2024/04/03 11:01:30;;;;;;;0.60;0.40;;;13.00;99.90;;;;;;5010566;28;20022;-73
2024/04/03 11:03:56;;;;;;;0.55;0.45;;;12.80;99.90;;;;;;5006632;28;20035;-73
2024/04/03 11:06:23;;;;;;;1.17;0.47;;;12.70;99.90;;;;;;5019427;28;20030;-73
2024/04/03 11:08:49;;;;;;;1.15;0.40;;;12.60;99.90;;;;;;5063043;23;20026;-66
2024/04/03 11:11:15;;;;;;;1.02;0.50;;;12.50;99.90;;;;;;5023818;28;20045;-67
2024/04/03 11:13:47;;;;;;;1.48;0.88;;;12.40;99.90;;;;;;5025973;28;20101;-67
2024/04/03 11:16:13;;;;;;;4.05;0.52;;;12.50;99.90;;;;;;5044302;28;20042;-67
2024/04/03 11:18:43;;;;;;;1.17;0.73;;;12.60;99.90;;;;;;5026104;28;20029;-67
2024/04/03 11:21:09;;;;;;;0.90;0.50;;;12.70;99.90;;;;;;5045380;28;20508;-67
2024/04/03 11:23:38;;;;;;;2.65;0.50;;;12.90;99.90;;;;;;5030970;28;20120;-67
2024/04/03 11:26:05;;;;;;;14.35;2.90;;;12.90;99.90;;;;;;5012241;28;20359;-67
2024/04/03 11:28:31;;;;;;;3.15;0.30;;;13.00;99.90;;;;;;5029467;28;20021;-67
2024/04/03 11:30:56;;;;;;;1.17;0.50;;;12.80;99.90;;;;;;5028168;28;20545;-67
2024/04/03 11:33:22;;;;;;;3.42;0.50;;;12.80;99.90;;;;;;5030682;28;20478;-67
2024/04/03 11:35:48;;;;;;;1.95;0.20;;;12.70;99.90;;;;;;5023058;28;20116;-67
2024/04/03 11:38:13;;;;;;;1.33;0.50;;;12.60;99.90;;;;;;5029419;28;20033;-67
2024/04/03 11:40:39;;;;;;;3.13;0.52;;;12.70;99.90;;;;;;5028017;28;20033;-67
2024/04/03 11:43:05;;;;;;;0.35;0.22;;;12.70;99.90;;;;;;5026831;28;20041;-67
2024/04/03 11:45:31;;;;;;;4.93;0.77;;;12.60;99.90;;;;;;5028886;28;20593;-67
2024/04/03 11:47:57;;;;;;;0.98;0.50;;;12.40;99.90;;;;;;5030292;28;20033;-68
2024/04/03 11:50:23;;;;;;;3.45;0.70;;;12.10;99.90;;;;;;5025469;28;20030;-68
2024/04/03 11:52:49;;;;;;;0.98;0.70;;;12.00;99.90;;;;;;5026044;28;20033;-68
2024/04/03 11:55:15;;;;;;;1.17;0.40;;;11.80;99.90;;;;;;5028655;28;20033;-68
2024/04/03 11:57:40;;;;;;;0.90;0.47;;;11.70;99.90;;;;;;5017342;28;20713;-68
2024/04/03 12:00:13;;;;;;;3.33;0.55;;;11.70;99.90;;;;;;5025524;28;20026;-68
2024/04/03 12:02:40;;;;;;;0.65;0.40;;;11.60;99.90;;;;;;5030362;28;20052;-68
2024/04/03 12:05:06;;;;;;;0.57;0.55;;;11.60;99.90;;;;;;5028948;28;20083;-68
2024/04/03 12:07:35;;;;;;;1.95;0.80;;;11.60;99.90;;;;;;5031071;28;20117;-68
2024/04/03 12:10:07;;;;;;;2.78;0.60;;;11.50;99.90;;;;;;5028805;28;20034;-68
2024/04/03 12:12:37;;;;;;;;;;;11.40;99.90;;;;;;5030915;28;20021;-68
2024/04/03 12:15:08;;;;;;;1.08;0.50;;;11.40;99.90;;;;;;5025513;28;19913;-68
2024/04/03 12:17:37;;;;;;;0.40;0.17;;;11.30;99.90;;;;;;5024792;28;20082;-67
2024/04/03 12:20:09;;;;;;;1.60;0.65;;;11.40;99.90;;;;;;5027866;28;20045;-68
2024/04/03 12:22:35;;;;;;;0.70;0.38;;;11.30;99.90;;;;;;5034068;28;20025;-68
2024/04/03 12:25:00;;;;;;;4.55;0.70;;;11.30;99.90;;;;;;5031636;28;20448;-68
2024/04/03 12:27:27;;;;;;;0.90;0.50;;;11.30;99.90;;;;;;5033885;28;20096;-68
2024/04/03 12:29:53;;;;;;;0.75;0.47;;;11.30;99.90;;;;;;5019306;28;20050;-68
2024/04/03 12:32:19;;;;;;;0.88;0.70;;;11.30;99.90;;;;;;5015390;28;20064;-68
2024/04/03 12:34:48;;;;;;;1.27;0.52;;;11.30;99.90;;;;;;5028470;28;20061;-68
2024/04/03 12:37:15;;;;;;;0.30;0.30;;;11.30;99.90;;;;;;5032246;28;20044;-68
2024/04/03 12:39:42;;;;;;;6.63;0.77;;;11.20;99.90;;;;;;5028528;28;20025;-68
2024/04/03 12:42:08;;;;;;;2.20;0.40;;;11.30;99.90;;;;;;5031626;28;20106;-68
2024/04/03 12:44:34;;;;;;;0.40;0.32;;;11.20;99.90;;;;;;5028365;28;20486;-68
2024/04/03 12:47:06;;;;;;;0.93;0.43;;;11.20;99.90;;;;;;5030049;28;20026;-68
2024/04/03 12:49:33;;;;;;;0.93;0.25;;;11.30;99.90;;;;;;5031287;28;20022;-68